Al Muharraq, Bahrain
Current Conditions -  °F | °C
As of 12:00 AM on Sunday 21 Dec 2014 (Local Time) from OBBI Reporting Station
Clear Clear  
Wind Chill: 66°   Ceiling: Unl
Heat Index: 66°   Visibility: 6mi
Dew Point: 55°   Wind: 8mph
Humidity: 68%   Direction: 130°SE
Pressure: 30.03"   Gusts: NA
Location:  26.26°N, 50.62°E
Report Text: OBBI 202100Z 13007KT CAVOK 19/13 Q1017 NOSIG
Loading
Personal Weather Stations






























Interactive Weather Map New forecast layout! Learn more

10-Day Weather Forecast

Advertisements
Track Severe Weather on mobile